createdAt,value
2019-05-25T00:02:22.761Z,69.50
2019-05-25T00:04:53.301Z,69.50
2019-05-25T00:07:23.997Z,69.10
2019-05-25T00:09:54.388Z,69.20
2019-05-25T00:12:24.960Z,69.10
2019-05-25T00:14:55.429Z,69.00
2019-05-25T00:17:26.061Z,68.90
2019-05-25T00:19:56.567Z,69.00
2019-05-25T00:22:27.084Z,68.80
2019-05-25T00:24:57.588Z,68.90
2019-05-25T00:27:28.130Z,68.80
2019-05-25T00:29:58.587Z,68.90
2019-05-25T00:32:29.198Z,68.90
2019-05-25T00:35:00.718Z,68.90
2019-05-25T00:37:32.814Z,69.00
2019-05-25T00:40:03.449Z,69.20
2019-05-25T00:42:34.007Z,69.20
2019-05-25T00:45:05.311Z,69.10
2019-05-25T00:47:35.798Z,69.00
2019-05-25T00:50:06.883Z,69.30
2019-05-25T00:52:37.431Z,69.70
2019-05-25T00:55:08.964Z,69.50
2019-05-25T00:57:39.457Z,69.70
2019-05-25T01:00:10.807Z,70.00
2019-05-25T01:02:41.577Z,70.20
2019-05-25T01:05:12.522Z,70.60
2019-05-25T01:07:43.026Z,70.90
2019-05-25T01:10:14.137Z,70.80
2019-05-25T01:12:44.580Z,70.90
2019-05-25T01:15:16.927Z,71.00
2019-05-25T01:17:47.438Z,71.70
2019-05-25T01:20:18.425Z,72.00
2019-05-25T01:22:48.906Z,71.70
2019-05-25T01:25:19.732Z,71.80
2019-05-25T01:27:50.297Z,72.70
2019-05-25T01:30:21.154Z,72.80
2019-05-25T01:32:51.637Z,72.80
2019-05-25T01:35:22.191Z,73.20
2019-05-25T01:37:52.641Z,73.60
2019-05-25T01:40:23.172Z,73.70
2019-05-25T01:42:53.591Z,74.10
2019-05-25T01:45:24.096Z,74.80
2019-05-25T01:47:54.599Z,74.30
2019-05-25T01:50:25.091Z,74.20
2019-05-25T01:52:55.589Z,74.20
2019-05-25T01:55:26.175Z,74.70
2019-05-25T01:57:56.653Z,74.70
2019-05-25T02:00:28.599Z,74.70
2019-05-25T02:02:58.954Z,75.20
2019-05-25T02:05:29.335Z,75.00
2019-05-25T02:07:59.868Z,75.20
2019-05-25T02:10:30.252Z,75.80
2019-05-25T02:13:00.728Z,76.70
2019-05-25T02:15:31.206Z,76.50
2019-05-25T02:18:01.607Z,76.10
2019-05-25T02:20:32.121Z,76.30
2019-05-25T02:23:02.656Z,76.60
2019-05-25T02:25:33.013Z,76.90
2019-05-25T02:28:03.501Z,77.10
2019-05-25T02:30:33.909Z,77.60
2019-05-25T02:33:04.368Z,77.70
2019-05-25T02:35:34.780Z,77.90
2019-05-25T02:38:05.247Z,77.30
2019-05-25T02:40:35.805Z,77.30
2019-05-25T02:43:06.200Z,77.20
2019-05-25T02:45:36.590Z,77.30
2019-05-25T02:48:07.149Z,77.10
2019-05-25T02:50:37.572Z,77.00
2019-05-25T02:53:08.226Z,76.90
2019-05-25T02:55:38.709Z,76.90
2019-05-25T02:58:10.263Z,76.80
2019-05-25T03:00:40.751Z,76.90
2019-05-25T03:03:11.286Z,76.80
2019-05-25T03:05:42.057Z,76.90
2019-05-25T03:08:12.547Z,77.30
2019-05-25T03:10:43.602Z,76.70
2019-05-25T03:13:14.408Z,77.70
2019-05-25T03:15:44.881Z,78.00
2019-05-25T03:18:15.451Z,77.90
2019-05-25T03:20:45.919Z,77.80
2019-05-25T03:23:35.335Z,77.90
2019-05-25T03:26:05.725Z,77.70
2019-05-25T03:28:36.270Z,77.60
2019-05-25T03:31:06.641Z,77.30
2019-05-25T03:33:37.104Z,77.40
2019-05-25T03:36:07.601Z,77.30
2019-05-25T03:38:38.032Z,77.30
2019-05-25T03:41:08.528Z,77.40
2019-05-25T03:43:39.119Z,77.50
2019-05-25T03:46:09.884Z,77.30
2019-05-25T03:48:40.301Z,77.70
2019-05-25T03:51:10.828Z,78.20
2019-05-25T03:53:41.250Z,78.20
2019-05-25T03:56:11.793Z,78.20
2019-05-25T03:58:42.291Z,78.70
2019-05-25T04:01:12.751Z,78.50
2019-05-25T04:03:43.513Z,78.70
2019-05-25T04:06:13.973Z,78.90
2019-05-25T04:08:44.490Z,79.70
2019-05-25T04:11:14.964Z,80.00
2019-05-25T04:13:45.498Z,80.10
2019-05-25T04:16:15.880Z,80.60
2019-05-25T04:18:46.477Z,80.50
2019-05-25T04:21:16.999Z,80.50
2019-05-25T04:23:47.464Z,80.50
2019-05-25T04:26:22.471Z,80.50
2019-05-25T04:28:49.981Z,80.50
2019-05-25T04:31:20.441Z,80.50
2019-05-25T04:33:50.908Z,80.30
2019-05-25T04:36:21.276Z,81.40
2019-05-25T04:38:51.747Z,80.90
2019-05-25T04:41:22.252Z,81.40
2019-05-25T04:43:52.733Z,82.00
2019-05-25T04:46:23.209Z,81.40
2019-05-25T04:48:53.701Z,81.40
2019-05-25T04:51:24.274Z,81.50
2019-05-25T04:53:54.839Z,81.40
2019-05-25T04:56:39.101Z,81.70
2019-05-25T04:58:57.743Z,81.40
2019-05-25T05:01:28.127Z,81.40
2019-05-25T05:03:59.043Z,81.50
2019-05-25T05:06:29.563Z,81.70
2019-05-25T05:09:00.055Z,81.80
2019-05-25T05:11:30.596Z,82.00
2019-05-25T05:14:01.142Z,82.30
2019-05-25T05:16:31.537Z,82.20
2019-05-25T05:19:02.093Z,81.70
2019-05-25T05:21:32.555Z,81.40
2019-05-25T05:24:03.061Z,81.20
2019-05-25T05:26:34.699Z,81.30
2019-05-25T05:29:05.618Z,80.80
2019-05-25T05:31:36.057Z,80.70
2019-05-25T05:34:06.595Z,80.80
2019-05-25T05:36:37.788Z,80.50
2019-05-25T05:39:09.673Z,80.20
2019-05-25T05:41:40.320Z,80.80
2019-05-25T05:44:13.904Z,80.50
2019-05-25T05:46:47.110Z,79.50
2019-05-25T05:49:18.588Z,79.50
2019-05-25T05:51:50.792Z,79.60
2019-05-25T05:54:21.506Z,79.60
2019-05-25T05:56:51.908Z,79.00
2019-05-25T05:59:22.392Z,78.80
2019-05-25T06:01:52.927Z,78.20
2019-05-25T06:04:23.430Z,78.40
2019-05-25T06:06:54.183Z,78.50
2019-05-25T06:09:24.643Z,77.90
2019-05-25T06:11:55.167Z,77.10
2019-05-25T06:14:25.621Z,76.90
2019-05-25T06:16:56.120Z,76.60
2019-05-25T06:19:26.626Z,76.30
2019-05-25T06:21:57.196Z,76.20
2019-05-25T06:24:27.681Z,75.70
2019-05-25T06:26:58.218Z,75.30
2019-05-25T06:29:28.694Z,76.10
2019-05-25T06:31:59.166Z,74.60
2019-05-25T06:34:29.632Z,74.50
2019-05-25T06:37:00.175Z,74.00
2019-05-25T06:39:30.761Z,74.00
2019-05-25T06:42:02.035Z,74.80
2019-05-25T06:44:32.864Z,74.60
2019-05-25T06:47:03.342Z,74.40
2019-05-25T06:49:33.795Z,74.00
2019-05-25T06:52:04.451Z,73.20
2019-05-25T06:54:34.972Z,73.10
2019-05-25T06:57:05.574Z,72.90
2019-05-25T06:59:37.045Z,71.80
2019-05-25T07:02:07.568Z,69.50
2019-05-25T07:04:38.022Z,68.70
2019-05-25T07:07:08.474Z,68.60
2019-05-25T07:09:39.063Z,67.60
2019-05-25T07:12:09.547Z,68.40
2019-05-25T07:14:40.056Z,68.30
2019-05-25T07:17:10.529Z,68.40
2019-05-25T07:19:41.382Z,68.20
2019-05-25T07:22:11.774Z,67.80
2019-05-25T07:24:42.281Z,66.90
2019-05-25T07:27:12.976Z,66.40
2019-05-25T07:29:43.460Z,66.80
2019-05-25T07:32:13.826Z,66.20
2019-05-25T07:34:44.324Z,65.80
2019-05-25T07:37:14.706Z,65.20
2019-05-25T07:39:45.343Z,64.60
2019-05-25T07:42:15.885Z,64.30
2019-05-25T07:44:46.315Z,64.10
2019-05-25T07:47:16.825Z,63.40
2019-05-25T07:49:47.317Z,63.70
2019-05-25T07:52:18.087Z,63.40
2019-05-25T07:54:48.606Z,63.00
2019-05-25T07:57:19.037Z,62.80
2019-05-25T07:59:49.664Z,61.70
2019-05-25T08:02:20.116Z,61.30
2019-05-25T08:04:50.662Z,61.50
2019-05-25T08:07:21.190Z,60.50
2019-05-25T08:09:51.980Z,59.10
2019-05-25T08:12:22.593Z,58.30
2019-05-25T08:14:53.278Z,57.50
2019-05-25T08:17:23.874Z,58.20
2019-05-25T08:19:54.298Z,57.70
2019-05-25T08:22:24.718Z,57.00
2019-05-25T08:24:55.124Z,57.30
2019-05-25T08:27:25.656Z,57.30
2019-05-25T08:29:56.178Z,58.00
2019-05-25T08:32:26.564Z,58.00
2019-05-25T08:34:57.055Z,57.00
2019-05-25T08:37:27.525Z,55.40
2019-05-25T08:39:58.127Z,54.50
2019-05-25T08:42:28.609Z,54.40
2019-05-25T08:44:58.981Z,53.20
2019-05-25T08:47:29.361Z,53.00
2019-05-25T08:49:59.785Z,53.00
2019-05-25T08:52:30.193Z,53.00
2019-05-25T08:55:00.681Z,54.00
2019-05-25T08:57:31.319Z,55.30
2019-05-25T09:00:01.729Z,53.60
2019-05-25T09:02:32.347Z,54.00
2019-05-25T09:05:02.810Z,53.60
2019-05-25T09:07:33.420Z,52.50
2019-05-25T09:10:04.223Z,51.90
2019-05-25T09:12:34.725Z,51.50
2019-05-25T09:15:06.194Z,50.40
2019-05-25T09:17:36.765Z,50.80
2019-05-25T09:20:07.569Z,50.20
2019-05-25T09:22:39.087Z,50.20
2019-05-25T09:25:10.957Z,50.60
2019-05-25T09:27:41.395Z,49.40
2019-05-25T09:30:11.984Z,50.00
2019-05-25T09:32:42.349Z,49.50
2019-05-25T09:35:12.931Z,50.00
2019-05-25T09:37:43.680Z,49.10
2019-05-25T09:40:14.634Z,48.90
2019-05-25T09:42:45.269Z,48.50
2019-05-25T09:45:15.859Z,48.40
2019-05-25T09:47:46.385Z,48.20
2019-05-25T09:50:35.748Z,48.50
2019-05-25T09:53:06.131Z,48.80
2019-05-25T09:55:36.564Z,48.00
2019-05-25T09:58:07.015Z,48.00
2019-05-25T10:00:40.147Z,47.00
2019-05-25T10:03:09.801Z,46.80
2019-05-25T10:05:40.263Z,46.40
2019-05-25T10:08:10.794Z,44.90
2019-05-25T10:10:41.263Z,45.30
2019-05-25T10:13:11.854Z,44.10
2019-05-25T10:15:42.297Z,42.70
2019-05-25T10:18:12.785Z,42.90
2019-05-25T10:20:44.334Z,44.30
2019-05-25T10:23:14.884Z,44.90
2019-05-25T10:25:45.358Z,44.90
2019-05-25T10:28:15.866Z,45.50
2019-05-25T10:30:46.438Z,45.90
2019-05-25T10:33:16.945Z,45.60
2019-05-25T10:35:47.475Z,44.70
2019-05-25T10:38:17.969Z,44.80
2019-05-25T10:40:48.585Z,44.70
2019-05-25T10:43:18.995Z,45.30
2019-05-25T10:45:49.603Z,44.20
2019-05-25T10:48:20.117Z,44.30
2019-05-25T10:50:50.593Z,44.70
2019-05-25T10:53:21.074Z,45.40
2019-05-25T10:55:51.674Z,45.10
2019-05-25T10:58:22.291Z,44.90
2019-05-25T11:00:52.797Z,44.20
2019-05-25T11:03:23.352Z,45.00
2019-05-25T11:05:53.866Z,45.00
2019-05-25T11:08:24.450Z,45.10
2019-05-25T11:10:55.002Z,44.90
2019-05-25T11:13:25.939Z,44.70
2019-05-25T11:15:56.872Z,44.40
2019-05-25T11:18:27.326Z,43.90
2019-05-25T11:20:57.909Z,44.10
2019-05-25T11:23:28.390Z,43.70
2019-05-25T11:25:58.894Z,44.30
2019-05-25T11:28:29.462Z,44.30
2019-05-25T11:31:01.055Z,43.60
2019-05-25T11:33:31.677Z,44.20
2019-05-25T11:36:02.232Z,44.00
2019-05-25T11:38:32.944Z,44.60
2019-05-25T11:41:03.374Z,45.10
2019-05-25T11:43:33.912Z,44.90
2019-05-25T11:46:04.654Z,44.60
2019-05-25T11:48:36.505Z,43.50
2019-05-25T11:51:07.061Z,43.80
2019-05-25T11:53:38.754Z,44.80
2019-05-25T11:56:09.328Z,44.70
2019-05-25T11:58:47.287Z,44.30
2019-05-25T12:01:11.940Z,44.70
2019-05-25T12:03:42.687Z,43.10
2019-05-25T12:06:13.345Z,43.70
2019-05-25T12:08:44.811Z,44.10
2019-05-25T12:11:15.386Z,43.60
2019-05-25T12:13:46.027Z,44.10
2019-05-25T12:16:16.637Z,43.70
2019-05-25T12:18:47.165Z,43.90
2019-05-25T12:21:17.727Z,44.50
2019-05-25T12:23:48.197Z,45.20
2019-05-25T12:26:18.772Z,45.50
2019-05-25T12:28:49.207Z,45.90
2019-05-25T12:31:19.633Z,46.00
2019-05-25T12:33:52.420Z,45.70
2019-05-25T12:36:22.943Z,45.80
2019-05-25T12:38:53.476Z,45.60
2019-05-25T12:41:23.954Z,45.40
2019-05-25T12:43:54.420Z,45.80
2019-05-25T12:46:24.942Z,45.80
2019-05-25T12:48:55.374Z,45.80
2019-05-25T12:51:25.871Z,46.10
2019-05-25T12:53:56.402Z,46.10
2019-05-25T12:56:26.959Z,46.20
2019-05-25T12:58:57.559Z,46.40
2019-05-25T13:01:28.118Z,46.60
2019-05-25T13:03:58.711Z,46.50
2019-05-25T13:06:29.254Z,46.70
2019-05-25T13:08:59.787Z,46.70
2019-05-25T13:11:30.301Z,46.50
2019-05-25T13:14:13.710Z,46.50
2019-05-25T13:16:32.953Z,46.70
2019-05-25T13:19:03.467Z,46.60
2019-05-25T13:21:33.914Z,46.80
2019-05-25T13:24:04.297Z,47.00
2019-05-25T13:26:34.698Z,46.00
2019-05-25T13:29:05.267Z,46.70
2019-05-25T13:31:35.762Z,46.80
2019-05-25T13:34:06.283Z,46.60
2019-05-25T13:36:36.876Z,46.60
2019-05-25T13:39:08.099Z,46.70
2019-05-25T13:41:38.588Z,46.90
2019-05-25T13:44:09.158Z,47.00
2019-05-25T13:46:39.580Z,46.70
2019-05-25T13:49:10.210Z,47.30
2019-05-25T13:51:40.618Z,47.50
2019-05-25T13:54:11.194Z,47.30
2019-05-25T13:56:41.735Z,47.50
2019-05-25T13:59:12.360Z,47.20
2019-05-25T14:01:42.845Z,47.10
2019-05-25T14:04:13.319Z,47.30
2019-05-25T14:06:43.818Z,47.20
2019-05-25T14:09:15.953Z,46.70
2019-05-25T14:11:46.684Z,47.00
2019-05-25T14:14:17.436Z,47.50
2019-05-25T14:16:47.981Z,47.30
2019-05-25T14:19:18.498Z,48.10
2019-05-25T14:21:48.903Z,47.00
2019-05-25T14:24:19.477Z,47.20
2019-05-25T14:26:49.939Z,47.70
2019-05-25T14:29:21.581Z,48.10
2019-05-25T14:31:52.398Z,48.50
2019-05-25T14:34:36.755Z,49.20
2019-05-25T14:37:07.347Z,50.10
2019-05-25T14:39:37.713Z,50.30
2019-05-25T14:42:08.114Z,50.10
2019-05-25T14:44:39.592Z,49.80
2019-05-25T14:47:10.113Z,49.60
2019-05-25T14:49:40.640Z,49.60
2019-05-25T14:52:11.174Z,49.80
2019-05-25T14:54:41.640Z,49.60
2019-05-25T14:57:12.103Z,49.00
2019-05-25T14:59:42.610Z,48.40
2019-05-25T15:02:13.087Z,48.10
2019-05-25T15:04:43.617Z,47.50
2019-05-25T15:07:14.102Z,47.90
2019-05-25T15:09:44.553Z,48.20
2019-05-25T15:12:15.056Z,48.50
2019-05-25T15:14:45.530Z,48.50
2019-05-25T15:17:16.031Z,48.50
2019-05-25T15:19:46.598Z,48.40
2019-05-25T15:22:17.115Z,48.10
2019-05-25T15:24:47.744Z,47.80
2019-05-25T15:27:18.329Z,47.60
2019-05-25T15:29:48.752Z,47.40
2019-05-25T15:32:20.582Z,47.80
2019-05-25T15:34:51.535Z,47.80
2019-05-25T15:37:22.306Z,47.90
2019-05-25T15:39:52.887Z,48.00
2019-05-25T15:42:23.398Z,47.90
2019-05-25T15:44:53.879Z,48.20
2019-05-25T15:47:24.379Z,48.00
2019-05-25T15:49:54.955Z,48.20
2019-05-25T15:52:25.393Z,48.20
2019-05-25T15:54:55.858Z,48.10
2019-05-25T15:57:26.378Z,48.00
2019-05-25T15:59:56.870Z,47.80
2019-05-25T16:02:36.829Z,48.00
2019-05-25T16:04:59.829Z,48.00
2019-05-25T16:07:32.770Z,48.00
2019-05-25T16:10:03.238Z,48.00
2019-05-25T16:12:33.873Z,47.60
2019-05-25T16:15:04.395Z,48.00
2019-05-25T16:17:34.929Z,48.00
2019-05-25T16:20:06.455Z,48.00
2019-05-25T16:22:36.863Z,48.10
2019-05-25T16:25:07.798Z,48.10
2019-05-25T16:27:38.250Z,48.50
2019-05-25T16:30:08.871Z,48.70
2019-05-25T16:33:10.089Z,49.10
2019-05-25T16:35:11.955Z,49.10
2019-05-25T16:37:42.853Z,49.20
2019-05-25T16:40:13.638Z,49.30
2019-05-25T16:42:44.117Z,49.30
2019-05-25T16:45:17.811Z,49.30
2019-05-25T16:47:48.275Z,49.60
2019-05-25T16:50:20.118Z,49.40
2019-05-25T16:52:50.673Z,49.50
2019-05-25T16:55:21.211Z,49.60
2019-05-25T16:57:51.757Z,49.50
2019-05-25T17:00:31.359Z,49.60
2019-05-25T17:03:01.806Z,49.60
2019-05-25T17:05:32.433Z,49.60
2019-05-25T17:08:02.822Z,49.60
2019-05-25T17:10:33.305Z,49.70
2019-05-25T17:13:03.783Z,49.70
2019-05-25T17:15:34.278Z,49.80
2019-05-25T17:18:05.262Z,50.00
2019-05-25T17:20:35.916Z,49.80
2019-05-25T17:23:06.404Z,49.70
2019-05-25T17:25:36.896Z,49.60
2019-05-25T17:28:07.526Z,49.90
2019-05-25T17:30:43.151Z,49.60
2019-05-25T17:33:14.619Z,49.80
2019-05-25T17:35:45.400Z,50.30
2019-05-25T17:38:15.981Z,50.50
2019-05-25T17:40:46.437Z,50.70
2019-05-25T17:43:16.946Z,50.90
2019-05-25T17:45:47.442Z,51.70
2019-05-25T17:48:18.068Z,52.50
2019-05-25T17:50:48.704Z,53.00
2019-05-25T17:53:19.213Z,53.20
2019-05-25T17:55:49.739Z,53.60
2019-05-25T17:58:20.219Z,53.80
2019-05-25T18:00:51.053Z,53.80
2019-05-25T18:03:21.940Z,53.90
2019-05-25T18:05:52.522Z,54.10
2019-05-25T18:08:23.094Z,54.20
2019-05-25T18:10:54.693Z,54.20
2019-05-25T18:13:28.687Z,54.40
2019-05-25T18:15:57.670Z,54.50
2019-05-25T18:18:28.379Z,54.60
2019-05-25T18:20:58.880Z,54.80
2019-05-25T18:23:29.549Z,55.00
2019-05-25T18:26:01.206Z,55.30
2019-05-25T18:28:31.802Z,55.20
2019-05-25T18:31:02.485Z,55.20
2019-05-25T18:33:33.103Z,55.40
2019-05-25T18:36:03.763Z,55.40
2019-05-25T18:38:34.262Z,55.60
2019-05-25T18:41:04.819Z,55.70
2019-05-25T18:43:35.432Z,55.80
2019-05-25T18:46:06.125Z,56.00
2019-05-25T18:48:36.604Z,56.10
2019-05-25T18:51:07.050Z,56.50
2019-05-25T18:53:37.552Z,56.50
2019-05-25T18:56:07.970Z,56.60
2019-05-25T18:58:38.452Z,56.90
2019-05-25T19:01:08.981Z,56.90
2019-05-25T19:03:39.573Z,57.00
2019-05-25T19:06:10.087Z,57.50
2019-05-25T19:08:40.615Z,57.40
2019-05-25T19:11:11.440Z,57.70
2019-05-25T19:13:41.873Z,57.90
2019-05-25T19:16:12.470Z,58.00
2019-05-25T19:18:43.021Z,57.90
2019-05-25T19:21:13.525Z,58.10
2019-05-25T19:23:43.966Z,58.20
2019-05-25T19:26:14.462Z,58.20
2019-05-25T19:28:45.008Z,58.20
2019-05-25T19:31:15.483Z,58.30
2019-05-25T19:33:45.992Z,58.40
2019-05-25T19:36:16.454Z,58.60
2019-05-25T19:38:46.913Z,58.70
2019-05-25T19:41:17.336Z,58.70
2019-05-25T19:43:48.862Z,58.70
2019-05-25T19:46:19.417Z,59.00
2019-05-25T19:48:50.037Z,59.10
2019-05-25T19:51:20.460Z,59.60
2019-05-25T19:53:51.040Z,59.70
2019-05-25T19:56:21.651Z,59.70
2019-05-25T19:58:52.115Z,59.90
2019-05-25T20:01:37.144Z,60.00
2019-05-25T20:04:07.849Z,60.20
2019-05-25T20:06:38.330Z,60.40
2019-05-25T20:09:08.796Z,60.70
2019-05-25T20:11:39.246Z,60.90
2019-05-25T20:14:09.854Z,61.40
2019-05-25T20:16:40.339Z,61.50
2019-05-25T20:19:10.839Z,61.90
2019-05-25T20:21:41.359Z,62.00
2019-05-25T20:24:12.590Z,62.30
2019-05-25T20:26:43.020Z,62.30
2019-05-25T20:29:13.625Z,62.90
2019-05-25T20:31:44.223Z,62.70
2019-05-25T20:34:14.707Z,62.90
2019-05-25T20:36:45.621Z,63.00
2019-05-25T20:39:16.175Z,63.10
2019-05-25T20:41:46.582Z,63.50
2019-05-25T20:44:17.205Z,63.70
2019-05-25T20:46:47.606Z,63.70
2019-05-25T20:49:18.128Z,63.80
2019-05-25T20:51:48.597Z,63.90
2019-05-25T20:54:19.246Z,64.10
2019-05-25T20:56:49.704Z,64.20
2019-05-25T20:59:20.211Z,64.40
2019-05-25T21:01:50.735Z,64.90
2019-05-25T21:04:21.196Z,64.80
2019-05-25T21:06:51.737Z,65.00
2019-05-25T21:09:22.236Z,65.20
2019-05-25T21:11:55.855Z,65.50
2019-05-25T21:14:25.106Z,65.60
2019-05-25T21:16:55.760Z,65.50
2019-05-25T21:19:26.286Z,65.50
2019-05-25T21:21:56.842Z,65.90
2019-05-25T21:24:27.351Z,65.80
2019-05-25T21:26:57.818Z,66.10
2019-05-25T21:29:28.308Z,66.20
2019-05-25T21:31:58.895Z,66.50
2019-05-25T21:34:29.439Z,66.70
2019-05-25T21:37:00.125Z,66.70
2019-05-25T21:39:30.525Z,67.00
2019-05-25T21:42:01.019Z,66.90
2019-05-25T21:44:31.448Z,67.00
2019-05-25T21:47:02.269Z,67.10
2019-05-25T21:49:32.746Z,67.10
2019-05-25T21:52:03.393Z,67.10
2019-05-25T21:54:33.934Z,67.10
2019-05-25T21:57:04.353Z,67.90
2019-05-25T21:59:34.895Z,66.90
2019-05-25T22:02:05.551Z,66.60
2019-05-25T22:04:36.043Z,67.30
2019-05-25T22:07:06.576Z,67.50
2019-05-25T22:09:37.081Z,67.60
2019-05-25T22:12:07.692Z,67.80
2019-05-25T22:14:38.199Z,67.80
2019-05-25T22:17:08.768Z,67.90
2019-05-25T22:19:39.245Z,67.90
2019-05-25T22:22:09.867Z,68.10
2019-05-25T22:24:40.334Z,68.00
2019-05-25T22:27:10.799Z,68.30
2019-05-25T22:29:41.331Z,68.30
2019-05-25T22:32:11.692Z,68.50
2019-05-25T22:34:42.259Z,68.90
2019-05-25T22:37:12.769Z,68.90
2019-05-25T22:39:43.266Z,69.00
2019-05-25T22:42:13.813Z,69.10
2019-05-25T22:44:44.257Z,68.80
2019-05-25T22:47:14.827Z,68.50
2019-05-25T22:49:45.392Z,68.10
2019-05-25T22:52:18.194Z,68.30
2019-05-25T22:54:48.668Z,68.50
2019-05-25T22:57:19.418Z,69.00
2019-05-25T22:59:49.845Z,69.60
2019-05-25T23:02:20.397Z,68.60
2019-05-25T23:04:51.217Z,67.70
2019-05-25T23:07:21.653Z,67.30
2019-05-25T23:09:52.173Z,67.20
2019-05-25T23:12:22.582Z,67.10
2019-05-25T23:14:53.006Z,67.20
2019-05-25T23:17:23.397Z,67.30
2019-05-25T23:19:53.842Z,67.40
2019-05-25T23:22:24.248Z,67.50
2019-05-25T23:24:54.879Z,67.50
2019-05-25T23:27:25.406Z,67.50
2019-05-25T23:29:55.923Z,67.80
2019-05-25T23:32:26.304Z,67.90
2019-05-25T23:34:56.785Z,68.00
2019-05-25T23:37:27.301Z,67.90
2019-05-25T23:39:57.806Z,68.00
2019-05-25T23:42:28.492Z,68.00
2019-05-25T23:44:58.938Z,68.00
2019-05-25T23:47:29.431Z,68.00
2019-05-25T23:49:59.968Z,68.30
2019-05-25T23:52:30.486Z,68.10
2019-05-25T23:55:04.770Z,68.20
2019-05-25T23:57:33.158Z,68.20
